sensor_id;sensor_type;location;lat;lon;timestamp;P1;durP1;ratioP1;P2;durP2;ratioP2
48945;SDS011;34999;50.940;3.998;2023-06-22T00:01:28;7.00;;;5.67;;
48945;SDS011;34999;50.940;3.998;2023-06-22T00:03:56;9.00;;;5.97;;
48945;SDS011;34999;50.940;3.998;2023-06-22T00:06:24;6.07;;;5.23;;
48945;SDS011;34999;50.940;3.998;2023-06-22T00:08:53;7.47;;;5.30;;
48945;SDS011;34999;50.940;3.998;2023-06-22T00:11:22;8.10;;;6.17;;
48945;SDS011;34999;50.940;3.998;2023-06-22T00:13:51;8.17;;;6.07;;
48945;SDS011;34999;50.940;3.998;2023-06-22T00:16:19;7.93;;;6.60;;
48945;SDS011;34999;50.940;3.998;2023-06-22T00:18:47;8.13;;;6.27;;
48945;SDS011;34999;50.940;3.998;2023-06-22T00:21:16;7.50;;;6.60;;
48945;SDS011;34999;50.940;3.998;2023-06-22T00:23:47;7.00;;;6.00;;
48945;SDS011;34999;50.940;3.998;2023-06-22T00:26:15;8.77;;;6.50;;
48945;SDS011;34999;50.940;3.998;2023-06-22T00:28:45;9.47;;;6.23;;
48945;SDS011;34999;50.940;3.998;2023-06-22T00:31:13;6.77;;;5.93;;
48945;SDS011;34999;50.940;3.998;2023-06-22T00:33:41;7.27;;;6.17;;
48945;SDS011;34999;50.940;3.998;2023-06-22T00:36:10;8.87;;;6.80;;
48945;SDS011;34999;50.940;3.998;2023-06-22T00:38:42;7.53;;;6.70;;
48945;SDS011;34999;50.940;3.998;2023-06-22T00:41:11;8.07;;;5.97;;
48945;SDS011;34999;50.940;3.998;2023-06-22T00:43:39;9.83;;;6.90;;
48945;SDS011;34999;50.940;3.998;2023-06-22T00:46:10;7.73;;;6.87;;
48945;SDS011;34999;50.940;3.998;2023-06-22T00:48:38;9.17;;;6.80;;
48945;SDS011;34999;50.940;3.998;2023-06-22T00:51:10;11.87;;;6.70;;
48945;SDS011;34999;50.940;3.998;2023-06-22T00:53:39;7.43;;;6.63;;
48945;SDS011;34999;50.940;3.998;2023-06-22T00:56:07;7.53;;;5.97;;
48945;SDS011;34999;50.940;3.998;2023-06-22T00:58:39;7.90;;;6.27;;
48945;SDS011;34999;50.940;3.998;2023-06-22T01:01:08;10.53;;;7.00;;
48945;SDS011;34999;50.940;3.998;2023-06-22T01:03:37;7.80;;;7.00;;
48945;SDS011;34999;50.940;3.998;2023-06-22T01:06:07;8.93;;;7.00;;
48945;SDS011;34999;50.940;3.998;2023-06-22T01:08:39;7.80;;;7.00;;
48945;SDS011;34999;50.940;3.998;2023-06-22T01:11:15;10.07;;;7.33;;
48945;SDS011;34999;50.940;3.998;2023-06-22T01:13:49;10.80;;;8.47;;
48945;SDS011;34999;50.940;3.998;2023-06-22T01:16:27;9.03;;;7.67;;
48945;SDS011;34999;50.940;3.998;2023-06-22T01:18:59;10.67;;;8.43;;
48945;SDS011;34999;50.940;3.998;2023-06-22T01:21:33;10.77;;;7.37;;
48945;SDS011;34999;50.940;3.998;2023-06-22T01:24:05;8.93;;;7.57;;
48945;SDS011;34999;50.940;3.998;2023-06-22T01:26:48;14.60;;;8.53;;
48945;SDS011;34999;50.940;3.998;2023-06-22T01:29:26;10.43;;;7.87;;
48945;SDS011;34999;50.940;3.998;2023-06-22T01:31:56;10.70;;;8.17;;
48945;SDS011;34999;50.940;3.998;2023-06-22T01:34:25;10.23;;;7.90;;
48945;SDS011;34999;50.940;3.998;2023-06-22T01:36:54;11.93;;;8.33;;
48945;SDS011;34999;50.940;3.998;2023-06-22T01:39:23;9.03;;;7.90;;
48945;SDS011;34999;50.940;3.998;2023-06-22T01:41:53;11.27;;;7.57;;
48945;SDS011;34999;50.940;3.998;2023-06-22T01:44:21;7.87;;;7.07;;
48945;SDS011;34999;50.940;3.998;2023-06-22T01:46:51;9.67;;;7.03;;
48945;SDS011;34999;50.940;3.998;2023-06-22T01:49:20;9.23;;;7.57;;
48945;SDS011;34999;50.940;3.998;2023-06-22T01:51:49;11.33;;;7.73;;
48945;SDS011;34999;50.940;3.998;2023-06-22T01:54:17;12.47;;;7.93;;
48945;SDS011;34999;50.940;3.998;2023-06-22T01:56:45;12.27;;;8.23;;
48945;SDS011;34999;50.940;3.998;2023-06-22T01:59:15;9.23;;;8.20;;
48945;SDS011;34999;50.940;3.998;2023-06-22T02:01:56;13.93;;;7.90;;
48945;SDS011;34999;50.940;3.998;2023-06-22T02:04:31;12.63;;;8.10;;
48945;SDS011;34999;50.940;3.998;2023-06-22T02:07:05;9.60;;;7.30;;
48945;SDS011;34999;50.940;3.998;2023-06-22T02:09:40;10.70;;;8.10;;
48945;SDS011;34999;50.940;3.998;2023-06-22T02:12:12;9.17;;;7.60;;
48945;SDS011;34999;50.940;3.998;2023-06-22T02:14:44;12.40;;;8.00;;
48945;SDS011;34999;50.940;3.998;2023-06-22T02:17:17;12.67;;;7.93;;
48945;SDS011;34999;50.940;3.998;2023-06-22T02:19:45;10.83;;;8.13;;
48945;SDS011;34999;50.940;3.998;2023-06-22T02:22:14;11.20;;;7.70;;
48945;SDS011;34999;50.940;3.998;2023-06-22T02:24:42;10.03;;;7.87;;
48945;SDS011;34999;50.940;3.998;2023-06-22T02:27:11;11.60;;;8.30;;
48945;SDS011;34999;50.940;3.998;2023-06-22T02:29:39;10.00;;;7.60;;
48945;SDS011;34999;50.940;3.998;2023-06-22T02:32:08;10.53;;;8.33;;
48945;SDS011;34999;50.940;3.998;2023-06-22T02:34:37;11.53;;;8.77;;
48945;SDS011;34999;50.940;3.998;2023-06-22T02:37:06;9.90;;;7.87;;
48945;SDS011;34999;50.940;3.998;2023-06-22T02:39:34;14.93;;;9.40;;
48945;SDS011;34999;50.940;3.998;2023-06-22T02:42:03;12.83;;;9.07;;
48945;SDS011;34999;50.940;3.998;2023-06-22T02:44:32;10.37;;;8.33;;
48945;SDS011;34999;50.940;3.998;2023-06-22T02:47:00;13.07;;;9.03;;
48945;SDS011;34999;50.940;3.998;2023-06-22T02:49:28;14.80;;;8.83;;
48945;SDS011;34999;50.940;3.998;2023-06-22T02:51:58;14.20;;;9.23;;
48945;SDS011;34999;50.940;3.998;2023-06-22T02:54:26;11.77;;;8.57;;
48945;SDS011;34999;50.940;3.998;2023-06-22T02:56:55;11.50;;;8.80;;
48945;SDS011;34999;50.940;3.998;2023-06-22T02:59:23;11.10;;;8.80;;
48945;SDS011;34999;50.940;3.998;2023-06-22T03:01:51;13.23;;;8.77;;
48945;SDS011;34999;50.940;3.998;2023-06-22T03:04:19;12.97;;;9.07;;
48945;SDS011;34999;50.940;3.998;2023-06-22T03:06:48;16.47;;;9.73;;
48945;SDS011;34999;50.940;3.998;2023-06-22T03:09:19;15.23;;;10.03;;
48945;SDS011;34999;50.940;3.998;2023-06-22T03:11:48;13.60;;;9.43;;
48945;SDS011;34999;50.940;3.998;2023-06-22T03:14:16;12.80;;;9.10;;
48945;SDS011;34999;50.940;3.998;2023-06-22T03:16:44;16.70;;;10.53;;
48945;SDS011;34999;50.940;3.998;2023-06-22T03:19:13;13.97;;;10.10;;
48945;SDS011;34999;50.940;3.998;2023-06-22T03:21:41;15.17;;;9.83;;
48945;SDS011;34999;50.940;3.998;2023-06-22T03:24:10;14.07;;;9.13;;
48945;SDS011;34999;50.940;3.998;2023-06-22T03:26:40;14.93;;;9.73;;
48945;SDS011;34999;50.940;3.998;2023-06-22T03:29:08;14.57;;;9.80;;
48945;SDS011;34999;50.940;3.998;2023-06-22T03:31:36;13.50;;;9.27;;
48945;SDS011;34999;50.940;3.998;2023-06-22T03:34:05;14.50;;;10.10;;
48945;SDS011;34999;50.940;3.998;2023-06-22T03:36:33;13.33;;;9.70;;
48945;SDS011;34999;50.940;3.998;2023-06-22T03:39:02;15.80;;;9.53;;
48945;SDS011;34999;50.940;3.998;2023-06-22T03:41:30;12.03;;;9.57;;
48945;SDS011;34999;50.940;3.998;2023-06-22T03:44:00;10.87;;;9.00;;
48945;SDS011;34999;50.940;3.998;2023-06-22T03:46:28;11.83;;;9.47;;
48945;SDS011;34999;50.940;3.998;2023-06-22T03:48:56;13.83;;;10.00;;
48945;SDS011;34999;50.940;3.998;2023-06-22T03:51:25;11.50;;;9.20;;
48945;SDS011;34999;50.940;3.998;2023-06-22T03:53:54;15.30;;;9.93;;
48945;SDS011;34999;50.940;3.998;2023-06-22T03:56:22;14.53;;;9.50;;
48945;SDS011;34999;50.940;3.998;2023-06-22T03:58:51;12.77;;;9.73;;
48945;SDS011;34999;50.940;3.998;2023-06-22T04:01:21;12.20;;;8.87;;
48945;SDS011;34999;50.940;3.998;2023-06-22T04:03:49;12.40;;;9.60;;
48945;SDS011;34999;50.940;3.998;2023-06-22T04:06:17;11.50;;;8.40;;
48945;SDS011;34999;50.940;3.998;2023-06-22T04:08:46;12.93;;;9.27;;
48945;SDS011;34999;50.940;3.998;2023-06-22T04:11:17;13.40;;;9.17;;
48945;SDS011;34999;50.940;3.998;2023-06-22T04:13:46;10.07;;;8.13;;
48945;SDS011;34999;50.940;3.998;2023-06-22T04:16:15;11.07;;;8.53;;
48945;SDS011;34999;50.940;3.998;2023-06-22T04:18:44;11.63;;;8.83;;
48945;SDS011;34999;50.940;3.998;2023-06-22T04:21:13;11.00;;;8.57;;
48945;SDS011;34999;50.940;3.998;2023-06-22T04:23:41;12.37;;;9.57;;
48945;SDS011;34999;50.940;3.998;2023-06-22T04:26:10;10.97;;;9.17;;
48945;SDS011;34999;50.940;3.998;2023-06-22T04:28:39;13.10;;;9.13;;
48945;SDS011;34999;50.940;3.998;2023-06-22T04:31:08;15.53;;;9.07;;
48945;SDS011;34999;50.940;3.998;2023-06-22T04:33:36;13.43;;;9.53;;
48945;SDS011;34999;50.940;3.998;2023-06-22T04:36:08;11.27;;;8.40;;
48945;SDS011;34999;50.940;3.998;2023-06-22T04:38:40;10.70;;;8.90;;
48945;SDS011;34999;50.940;3.998;2023-06-22T04:41:09;10.13;;;8.73;;
48945;SDS011;34999;50.940;3.998;2023-06-22T04:43:50;14.30;;;9.10;;
48945;SDS011;34999;50.940;3.998;2023-06-22T04:46:20;13.23;;;8.77;;
48945;SDS011;34999;50.940;3.998;2023-06-22T04:48:48;9.27;;;8.37;;
48945;SDS011;34999;50.940;3.998;2023-06-22T04:51:18;10.60;;;8.23;;
48945;SDS011;34999;50.940;3.998;2023-06-22T04:53:48;9.37;;;8.37;;
48945;SDS011;34999;50.940;3.998;2023-06-22T04:56:16;9.57;;;8.10;;
48945;SDS011;34999;50.940;3.998;2023-06-22T04:58:44;10.60;;;8.53;;
48945;SDS011;34999;50.940;3.998;2023-06-22T05:01:13;8.57;;;7.77;;
48945;SDS011;34999;50.940;3.998;2023-06-22T05:03:41;8.97;;;7.93;;
48945;SDS011;34999;50.940;3.998;2023-06-22T05:06:11;10.40;;;8.27;;
48945;SDS011;34999;50.940;3.998;2023-06-22T05:08:42;9.43;;;8.23;;
48945;SDS011;34999;50.940;3.998;2023-06-22T05:11:10;12.63;;;8.37;;
48945;SDS011;34999;50.940;3.998;2023-06-22T05:13:38;9.30;;;7.30;;
48945;SDS011;34999;50.940;3.998;2023-06-22T05:16:06;10.97;;;8.23;;
48945;SDS011;34999;50.940;3.998;2023-06-22T05:18:34;9.17;;;8.27;;
48945;SDS011;34999;50.940;3.998;2023-06-22T05:21:04;10.60;;;8.40;;
48945;SDS011;34999;50.940;3.998;2023-06-22T05:23:32;9.77;;;7.73;;
48945;SDS011;34999;50.940;3.998;2023-06-22T05:26:01;13.70;;;8.47;;
48945;SDS011;34999;50.940;3.998;2023-06-22T05:28:30;11.17;;;8.50;;
48945;SDS011;34999;50.940;3.998;2023-06-22T05:30:58;12.37;;;7.77;;
48945;SDS011;34999;50.940;3.998;2023-06-22T05:33:26;9.30;;;7.97;;
48945;SDS011;34999;50.940;3.998;2023-06-22T05:35:55;9.73;;;7.57;;
48945;SDS011;34999;50.940;3.998;2023-06-22T05:38:23;11.27;;;7.90;;
48945;SDS011;34999;50.940;3.998;2023-06-22T05:40:51;12.30;;;9.03;;
48945;SDS011;34999;50.940;3.998;2023-06-22T05:43:21;8.70;;;7.40;;
48945;SDS011;34999;50.940;3.998;2023-06-22T05:45:49;8.83;;;7.10;;
48945;SDS011;34999;50.940;3.998;2023-06-22T05:48:17;11.93;;;8.13;;
48945;SDS011;34999;50.940;3.998;2023-06-22T05:50:46;12.60;;;8.73;;
48945;SDS011;34999;50.940;3.998;2023-06-22T05:53:14;11.80;;;8.37;;
48945;SDS011;34999;50.940;3.998;2023-06-22T05:55:42;10.27;;;8.00;;
48945;SDS011;34999;50.940;3.998;2023-06-22T05:58:10;12.37;;;9.27;;
48945;SDS011;34999;50.940;3.998;2023-06-22T06:00:41;12.20;;;9.17;;
48945;SDS011;34999;50.940;3.998;2023-06-22T06:03:10;12.03;;;8.77;;
48945;SDS011;34999;50.940;3.998;2023-06-22T06:05:41;11.07;;;9.20;;
48945;SDS011;34999;50.940;3.998;2023-06-22T06:08:09;15.57;;;8.97;;
48945;SDS011;34999;50.940;3.998;2023-06-22T06:10:38;12.20;;;8.60;;
48945;SDS011;34999;50.940;3.998;2023-06-22T06:13:06;12.10;;;8.43;;
48945;SDS011;34999;50.940;3.998;2023-06-22T06:15:35;10.47;;;8.97;;
48945;SDS011;34999;50.940;3.998;2023-06-22T06:18:04;11.03;;;8.93;;
48945;SDS011;34999;50.940;3.998;2023-06-22T06:20:33;13.03;;;9.53;;
48945;SDS011;34999;50.940;3.998;2023-06-22T06:23:02;14.67;;;9.37;;
48945;SDS011;34999;50.940;3.998;2023-06-22T06:25:30;12.17;;;8.87;;
48945;SDS011;34999;50.940;3.998;2023-06-22T06:27:58;13.03;;;9.00;;
48945;SDS011;34999;50.940;3.998;2023-06-22T06:30:27;9.87;;;8.87;;
48945;SDS011;34999;50.940;3.998;2023-06-22T06:32:56;12.93;;;10.07;;
48945;SDS011;34999;50.940;3.998;2023-06-22T06:35:26;14.97;;;10.40;;
48945;SDS011;34999;50.940;3.998;2023-06-22T06:37:55;14.57;;;9.73;;
48945;SDS011;34999;50.940;3.998;2023-06-22T06:40:23;15.40;;;10.70;;
48945;SDS011;34999;50.940;3.998;2023-06-22T06:42:52;12.80;;;9.70;;
48945;SDS011;34999;50.940;3.998;2023-06-22T06:45:21;14.93;;;10.67;;
48945;SDS011;34999;50.940;3.998;2023-06-22T06:47:51;13.07;;;10.13;;
48945;SDS011;34999;50.940;3.998;2023-06-22T06:50:20;11.10;;;9.93;;
48945;SDS011;34999;50.940;3.998;2023-06-22T06:52:49;14.30;;;10.93;;
48945;SDS011;34999;50.940;3.998;2023-06-22T06:55:18;15.90;;;10.90;;
48945;SDS011;34999;50.940;3.998;2023-06-22T06:57:47;14.90;;;11.77;;
48945;SDS011;34999;50.940;3.998;2023-06-22T07:00:16;14.17;;;10.63;;
48945;SDS011;34999;50.940;3.998;2023-06-22T07:02:45;15.50;;;11.37;;
48945;SDS011;34999;50.940;3.998;2023-06-22T07:05:15;20.27;;;12.00;;
48945;SDS011;34999;50.940;3.998;2023-06-22T07:07:44;20.17;;;12.60;;
48945;SDS011;34999;50.940;3.998;2023-06-22T07:10:13;13.70;;;10.87;;
48945;SDS011;34999;50.940;3.998;2023-06-22T07:12:42;19.97;;;12.23;;
48945;SDS011;34999;50.940;3.998;2023-06-22T07:15:11;17.63;;;11.77;;
48945;SDS011;34999;50.940;3.998;2023-06-22T07:17:40;20.77;;;11.70;;
48945;SDS011;34999;50.940;3.998;2023-06-22T07:20:09;17.53;;;12.53;;
48945;SDS011;34999;50.940;3.998;2023-06-22T07:22:39;16.07;;;12.97;;
48945;SDS011;34999;50.940;3.998;2023-06-22T07:25:08;16.43;;;13.17;;
48945;SDS011;34999;50.940;3.998;2023-06-22T07:27:45;18.10;;;13.10;;
48945;SDS011;34999;50.940;3.998;2023-06-22T07:30:14;20.53;;;13.07;;
48945;SDS011;34999;50.940;3.998;2023-06-22T07:32:43;19.33;;;14.00;;
48945;SDS011;34999;50.940;3.998;2023-06-22T07:35:11;19.40;;;12.23;;
48945;SDS011;34999;50.940;3.998;2023-06-22T07:37:40;21.73;;;14.47;;
48945;SDS011;34999;50.940;3.998;2023-06-22T07:40:08;17.93;;;13.17;;
48945;SDS011;34999;50.940;3.998;2023-06-22T07:42:37;21.50;;;14.70;;
48945;SDS011;34999;50.940;3.998;2023-06-22T07:45:07;18.60;;;14.23;;
48945;SDS011;34999;50.940;3.998;2023-06-22T07:47:36;18.50;;;14.63;;
48945;SDS011;34999;50.940;3.998;2023-06-22T07:50:05;24.23;;;14.73;;
48945;SDS011;34999;50.940;3.998;2023-06-22T07:52:33;24.83;;;15.83;;
48945;SDS011;34999;50.940;3.998;2023-06-22T07:55:02;19.27;;;15.10;;
48945;SDS011;34999;50.940;3.998;2023-06-22T07:57:31;22.63;;;14.87;;
48945;SDS011;34999;50.940;3.998;2023-06-22T08:00:03;20.50;;;15.60;;
48945;SDS011;34999;50.940;3.998;2023-06-22T08:02:40;23.17;;;15.37;;
48945;SDS011;34999;50.940;3.998;2023-06-22T08:05:09;23.73;;;16.50;;
48945;SDS011;34999;50.940;3.998;2023-06-22T08:07:47;21.63;;;16.33;;
48945;SDS011;34999;50.940;3.998;2023-06-22T08:10:17;22.07;;;16.33;;
48945;SDS011;34999;50.940;3.998;2023-06-22T08:12:45;23.57;;;16.10;;
48945;SDS011;34999;50.940;3.998;2023-06-22T08:15:14;25.50;;;15.97;;
48945;SDS011;34999;50.940;3.998;2023-06-22T08:17:44;22.90;;;15.93;;
48945;SDS011;34999;50.940;3.998;2023-06-22T08:20:13;23.17;;;17.83;;
48945;SDS011;34999;50.940;3.998;2023-06-22T08:22:41;22.73;;;16.57;;
48945;SDS011;34999;50.940;3.998;2023-06-22T08:25:10;24.57;;;17.93;;
48945;SDS011;34999;50.940;3.998;2023-06-22T08:27:39;22.77;;;17.10;;
48945;SDS011;34999;50.940;3.998;2023-06-22T08:30:09;26.10;;;17.60;;
48945;SDS011;34999;50.940;3.998;2023-06-22T08:32:38;23.80;;;17.23;;
48945;SDS011;34999;50.940;3.998;2023-06-22T08:35:09;19.23;;;16.20;;
48945;SDS011;34999;50.940;3.998;2023-06-22T08:37:38;23.83;;;18.27;;
48945;SDS011;34999;50.940;3.998;2023-06-22T08:40:07;23.37;;;17.67;;
48945;SDS011;34999;50.940;3.998;2023-06-22T08:42:37;24.70;;;18.10;;
48945;SDS011;34999;50.940;3.998;2023-06-22T08:45:08;27.60;;;19.10;;
48945;SDS011;34999;50.940;3.998;2023-06-22T08:47:37;21.83;;;17.53;;
48945;SDS011;34999;50.940;3.998;2023-06-22T08:50:08;25.77;;;18.10;;
48945;SDS011;34999;50.940;3.998;2023-06-22T08:52:39;21.70;;;16.07;;
48945;SDS011;34999;50.940;3.998;2023-06-22T08:55:09;21.73;;;16.70;;
48945;SDS011;34999;50.940;3.998;2023-06-22T08:57:38;22.77;;;17.13;;
48945;SDS011;34999;50.940;3.998;2023-06-22T09:00:07;28.47;;;16.43;;
48945;SDS011;34999;50.940;3.998;2023-06-22T09:02:44;19.30;;;15.43;;
48945;SDS011;34999;50.940;3.998;2023-06-22T09:05:15;21.40;;;16.77;;
48945;SDS011;34999;50.940;3.998;2023-06-22T09:07:43;30.17;;;17.60;;
48945;SDS011;34999;50.940;3.998;2023-06-22T09:10:12;25.77;;;17.67;;
48945;SDS011;34999;50.940;3.998;2023-06-22T09:12:44;27.43;;;17.63;;
48945;SDS011;34999;50.940;3.998;2023-06-22T09:15:12;28.80;;;19.20;;
48945;SDS011;34999;50.940;3.998;2023-06-22T09:17:44;22.57;;;18.30;;
48945;SDS011;34999;50.940;3.998;2023-06-22T09:20:15;28.73;;;19.47;;
48945;SDS011;34999;50.940;3.998;2023-06-22T09:22:44;25.17;;;18.57;;
48945;SDS011;34999;50.940;3.998;2023-06-22T09:25:12;27.43;;;20.00;;
48945;SDS011;34999;50.940;3.998;2023-06-22T09:27:41;29.40;;;20.60;;
48945;SDS011;34999;50.940;3.998;2023-06-22T09:30:10;25.17;;;18.53;;
48945;SDS011;34999;50.940;3.998;2023-06-22T09:32:38;25.93;;;19.97;;
48945;SDS011;34999;50.940;3.998;2023-06-22T09:35:08;25.73;;;19.63;;
48945;SDS011;34999;50.940;3.998;2023-06-22T09:37:41;24.53;;;19.30;;
48945;SDS011;34999;50.940;3.998;2023-06-22T09:40:10;27.63;;;18.63;;
48945;SDS011;34999;50.940;3.998;2023-06-22T09:42:52;23.70;;;18.50;;
48945;SDS011;34999;50.940;3.998;2023-06-22T09:45:21;26.50;;;19.30;;
48945;SDS011;34999;50.940;3.998;2023-06-22T09:47:49;27.53;;;19.67;;
48945;SDS011;34999;50.940;3.998;2023-06-22T09:50:17;25.87;;;20.13;;
48945;SDS011;34999;50.940;3.998;2023-06-22T09:52:47;29.63;;;19.70;;
48945;SDS011;34999;50.940;3.998;2023-06-22T09:55:21;31.10;;;19.93;;
48945;SDS011;34999;50.940;3.998;2023-06-22T09:57:49;31.73;;;20.87;;
48945;SDS011;34999;50.940;3.998;2023-06-22T10:00:18;31.50;;;21.37;;
48945;SDS011;34999;50.940;3.998;2023-06-22T10:02:46;33.07;;;21.93;;
48945;SDS011;34999;50.940;3.998;2023-06-22T10:05:18;38.57;;;25.87;;
48945;SDS011;34999;50.940;3.998;2023-06-22T10:07:48;47.77;;;28.67;;
48945;SDS011;34999;50.940;3.998;2023-06-22T10:10:16;40.20;;;25.23;;
48945;SDS011;34999;50.940;3.998;2023-06-22T10:12:46;36.93;;;26.07;;
48945;SDS011;34999;50.940;3.998;2023-06-22T10:15:15;43.80;;;28.77;;
48945;SDS011;34999;50.940;3.998;2023-06-22T10:17:44;44.47;;;30.73;;
48945;SDS011;34999;50.940;3.998;2023-06-22T10:20:13;50.13;;;30.93;;
48945;SDS011;34999;50.940;3.998;2023-06-22T10:22:42;43.43;;;30.33;;
48945;SDS011;34999;50.940;3.998;2023-06-22T10:25:13;49.17;;;31.80;;
48945;SDS011;34999;50.940;3.998;2023-06-22T10:27:41;59.63;;;36.30;;
48945;SDS011;34999;50.940;3.998;2023-06-22T10:30:11;60.60;;;36.63;;
48945;SDS011;34999;50.940;3.998;2023-06-22T10:35:28;63.07;;;37.83;;
48945;SDS011;34999;50.940;3.998;2023-06-22T10:37:57;68.03;;;38.57;;
48945;SDS011;34999;50.940;3.998;2023-06-22T10:40:27;52.13;;;33.07;;
48945;SDS011;34999;50.940;3.998;2023-06-22T10:46:36;46.07;;;30.07;;
48945;SDS011;34999;50.940;3.998;2023-06-22T10:49:04;45.30;;;30.53;;
48945;SDS011;34999;50.940;3.998;2023-06-22T10:51:32;40.37;;;26.43;;
48945;SDS011;34999;50.940;3.998;2023-06-22T10:54:01;39.47;;;27.67;;
48945;SDS011;34999;50.940;3.998;2023-06-22T10:56:32;43.07;;;27.20;;
48945;SDS011;34999;50.940;3.998;2023-06-22T10:59:01;41.30;;;28.47;;
48945;SDS011;34999;50.940;3.998;2023-06-22T11:01:29;43.93;;;28.93;;
48945;SDS011;34999;50.940;3.998;2023-06-22T11:04:02;46.47;;;28.97;;
48945;SDS011;34999;50.940;3.998;2023-06-22T11:06:31;45.10;;;29.17;;
48945;SDS011;34999;50.940;3.998;2023-06-22T11:08:59;42.00;;;28.47;;
48945;SDS011;34999;50.940;3.998;2023-06-22T11:11:50;46.90;;;29.47;;
48945;SDS011;34999;50.940;3.998;2023-06-22T11:14:20;41.90;;;28.80;;
48945;SDS011;34999;50.940;3.998;2023-06-22T11:16:49;40.97;;;27.37;;
48945;SDS011;34999;50.940;3.998;2023-06-22T11:19:17;43.87;;;28.30;;
48945;SDS011;34999;50.940;3.998;2023-06-22T11:21:46;41.10;;;29.30;;
48945;SDS011;34999;50.940;3.998;2023-06-22T11:24:14;53.00;;;31.60;;
48945;SDS011;34999;50.940;3.998;2023-06-22T11:26:43;54.30;;;34.23;;
48945;SDS011;34999;50.940;3.998;2023-06-22T11:29:13;55.40;;;35.97;;
48945;SDS011;34999;50.940;3.998;2023-06-22T11:31:57;59.53;;;36.50;;
48945;SDS011;34999;50.940;3.998;2023-06-22T11:34:26;53.93;;;34.83;;
48945;SDS011;34999;50.940;3.998;2023-06-22T11:36:54;52.87;;;34.70;;
48945;SDS011;34999;50.940;3.998;2023-06-22T11:39:22;44.80;;;29.93;;
48945;SDS011;34999;50.940;3.998;2023-06-22T11:42:06;46.27;;;29.03;;
48945;SDS011;34999;50.940;3.998;2023-06-22T11:44:37;43.23;;;28.47;;
48945;SDS011;34999;50.940;3.998;2023-06-22T11:47:05;42.77;;;28.10;;
48945;SDS011;34999;50.940;3.998;2023-06-22T11:49:34;36.90;;;25.37;;
48945;SDS011;34999;50.940;3.998;2023-06-22T11:52:02;35.87;;;24.73;;
48945;SDS011;34999;50.940;3.998;2023-06-22T11:54:31;30.47;;;22.73;;
48945;SDS011;34999;50.940;3.998;2023-06-22T11:57:00;37.93;;;24.63;;
48945;SDS011;34999;50.940;3.998;2023-06-22T11:59:28;36.27;;;23.87;;
48945;SDS011;34999;50.940;3.998;2023-06-22T12:01:58;34.53;;;23.40;;
48945;SDS011;34999;50.940;3.998;2023-06-22T12:04:26;38.27;;;25.43;;
48945;SDS011;34999;50.940;3.998;2023-06-22T12:06:55;36.67;;;25.10;;
48945;SDS011;34999;50.940;3.998;2023-06-22T12:13:04;40.37;;;24.83;;
48945;SDS011;34999;50.940;3.998;2023-06-22T12:22:22;41.30;;;27.50;;
48945;SDS011;34999;50.940;3.998;2023-06-22T12:24:50;41.43;;;26.50;;
48945;SDS011;34999;50.940;3.998;2023-06-22T12:27:18;42.57;;;27.37;;
48945;SDS011;34999;50.940;3.998;2023-06-22T12:29:47;38.77;;;25.93;;
48945;SDS011;34999;50.940;3.998;2023-06-22T12:32:15;43.60;;;27.80;;
48945;SDS011;34999;50.940;3.998;2023-06-22T12:34:43;42.83;;;26.77;;
48945;SDS011;34999;50.940;3.998;2023-06-22T12:37:12;41.93;;;25.87;;
48945;SDS011;34999;50.940;3.998;2023-06-22T12:39:43;35.57;;;23.30;;
48945;SDS011;34999;50.940;3.998;2023-06-22T12:42:11;33.43;;;22.50;;
48945;SDS011;34999;50.940;3.998;2023-06-22T12:44:40;31.73;;;20.33;;
48945;SDS011;34999;50.940;3.998;2023-06-22T12:47:08;33.83;;;20.77;;
48945;SDS011;34999;50.940;3.998;2023-06-22T12:53:18;30.17;;;18.70;;
48945;SDS011;34999;50.940;3.998;2023-06-22T12:59:28;26.10;;;18.23;;
48945;SDS011;34999;50.940;3.998;2023-06-22T13:01:57;27.10;;;18.57;;
48945;SDS011;34999;50.940;3.998;2023-06-22T13:04:25;29.70;;;19.13;;
48945;SDS011;34999;50.940;3.998;2023-06-22T13:06:54;38.27;;;21.00;;
48945;SDS011;34999;50.940;3.998;2023-06-22T13:09:24;35.87;;;21.43;;
48945;SDS011;34999;50.940;3.998;2023-06-22T13:11:53;37.17;;;21.67;;
48945;SDS011;34999;50.940;3.998;2023-06-22T13:14:21;32.37;;;21.77;;
48945;SDS011;34999;50.940;3.998;2023-06-22T13:16:51;36.93;;;21.40;;
48945;SDS011;34999;50.940;3.998;2023-06-22T13:19:19;35.93;;;23.23;;
48945;SDS011;34999;50.940;3.998;2023-06-22T13:21:48;36.87;;;23.63;;
48945;SDS011;34999;50.940;3.998;2023-06-22T13:35:21;44.33;;;26.57;;
48945;SDS011;34999;50.940;3.998;2023-06-22T13:37:50;46.33;;;27.27;;
48945;SDS011;34999;50.940;3.998;2023-06-22T13:40:18;42.00;;;27.07;;
48945;SDS011;34999;50.940;3.998;2023-06-22T13:42:47;45.27;;;27.00;;
48945;SDS011;34999;50.940;3.998;2023-06-22T13:48:56;43.27;;;26.80;;
48945;SDS011;34999;50.940;3.998;2023-06-22T13:51:26;50.10;;;29.03;;
48945;SDS011;34999;50.940;3.998;2023-06-22T13:53:54;46.60;;;27.93;;
48945;SDS011;34999;50.940;3.998;2023-06-22T13:56:25;47.63;;;27.07;;
48945;SDS011;34999;50.940;3.998;2023-06-22T13:58:53;43.00;;;27.20;;
48945;SDS011;34999;50.940;3.998;2023-06-22T14:01:22;45.17;;;26.57;;
48945;SDS011;34999;50.940;3.998;2023-06-22T14:03:50;46.70;;;26.87;;
48945;SDS011;34999;50.940;3.998;2023-06-22T14:06:19;47.87;;;26.97;;
48945;SDS011;34999;50.940;3.998;2023-06-22T14:08:49;48.30;;;26.90;;
48945;SDS011;34999;50.940;3.998;2023-06-22T14:11:17;45.73;;;25.77;;
48945;SDS011;34999;50.940;3.998;2023-06-22T14:13:46;44.87;;;27.17;;
48945;SDS011;34999;50.940;3.998;2023-06-22T14:16:14;46.37;;;25.87;;
48945;SDS011;34999;50.940;3.998;2023-06-22T14:18:42;45.10;;;27.43;;
48945;SDS011;34999;50.940;3.998;2023-06-22T14:21:12;47.33;;;28.43;;
48945;SDS011;34999;50.940;3.998;2023-06-22T14:23:40;46.90;;;28.17;;
48945;SDS011;34999;50.940;3.998;2023-06-22T14:26:15;50.47;;;30.17;;
48945;SDS011;34999;50.940;3.998;2023-06-22T14:28:44;49.30;;;30.50;;
48945;SDS011;34999;50.940;3.998;2023-06-22T14:31:15;56.77;;;31.80;;
48945;SDS011;34999;50.940;3.998;2023-06-22T14:33:45;56.67;;;32.57;;
48945;SDS011;34999;50.940;3.998;2023-06-22T14:36:14;55.93;;;32.33;;
48945;SDS011;34999;50.940;3.998;2023-06-22T14:38:44;54.37;;;31.73;;
48945;SDS011;34999;50.940;3.998;2023-06-22T14:41:14;56.40;;;33.67;;
48945;SDS011;34999;50.940;3.998;2023-06-22T14:43:44;60.23;;;34.17;;
48945;SDS011;34999;50.940;3.998;2023-06-22T14:46:14;64.57;;;36.07;;
48945;SDS011;34999;50.940;3.998;2023-06-22T14:48:43;61.30;;;35.87;;
48945;SDS011;34999;50.940;3.998;2023-06-22T14:51:11;59.13;;;35.17;;
48945;SDS011;34999;50.940;3.998;2023-06-22T14:53:43;63.80;;;34.43;;
48945;SDS011;34999;50.940;3.998;2023-06-22T14:56:12;57.93;;;35.53;;
48945;SDS011;34999;50.940;3.998;2023-06-22T14:58:43;58.77;;;35.53;;
48945;SDS011;34999;50.940;3.998;2023-06-22T15:01:13;63.67;;;36.20;;
48945;SDS011;34999;50.940;3.998;2023-06-22T15:03:42;57.33;;;35.57;;
48945;SDS011;34999;50.940;3.998;2023-06-22T15:06:10;57.37;;;35.47;;
48945;SDS011;34999;50.940;3.998;2023-06-22T15:08:39;59.03;;;35.57;;
48945;SDS011;34999;50.940;3.998;2023-06-22T15:11:07;52.13;;;34.40;;
48945;SDS011;34999;50.940;3.998;2023-06-22T15:13:39;53.03;;;33.93;;
48945;SDS011;34999;50.940;3.998;2023-06-22T15:16:08;53.37;;;35.00;;
48945;SDS011;34999;50.940;3.998;2023-06-22T15:18:37;50.27;;;33.20;;
48945;SDS011;34999;50.940;3.998;2023-06-22T15:21:07;52.23;;;33.70;;